sensor_id;sensor_type;location;lat;lon;timestamp;temperature;humidity
12887;DHT22;6511;49.746;6.094;2023-05-07T00:02:20;11.40;99.90
12887;DHT22;6511;49.746;6.094;2023-05-07T00:04:46;11.50;99.90
12887;DHT22;6511;49.746;6.094;2023-05-07T00:07:12;11.50;99.90
12887;DHT22;6511;49.746;6.094;2023-05-07T00:09:38;11.50;99.90
12887;DHT22;6511;49.746;6.094;2023-05-07T00:12:03;11.50;99.90
12887;DHT22;6511;49.746;6.094;2023-05-07T00:14:29;11.40;99.90
12887;DHT22;6511;49.746;6.094;2023-05-07T00:16:55;11.50;99.90
12887;DHT22;6511;49.746;6.094;2023-05-07T00:19:20;11.10;99.90
12887;DHT22;6511;49.746;6.094;2023-05-07T00:21:46;11.10;99.90
12887;DHT22;6511;49.746;6.094;2023-05-07T00:24:12;11.10;99.90
12887;DHT22;6511;49.746;6.094;2023-05-07T00:26:37;10.90;99.90
12887;DHT22;6511;49.746;6.094;2023-05-07T00:29:03;10.90;99.90
12887;DHT22;6511;49.746;6.094;2023-05-07T00:31:29;10.90;99.90
12887;DHT22;6511;49.746;6.094;2023-05-07T00:33:54;10.90;99.90
12887;DHT22;6511;49.746;6.094;2023-05-07T00:36:20;10.80;99.90
12887;DHT22;6511;49.746;6.094;2023-05-07T00:38:46;10.70;99.90
12887;DHT22;6511;49.746;6.094;2023-05-07T00:41:11;10.80;99.90
12887;DHT22;6511;49.746;6.094;2023-05-07T00:43:37;10.60;99.90
12887;DHT22;6511;49.746;6.094;2023-05-07T00:46:03;10.40;99.90
12887;DHT22;6511;49.746;6.094;2023-05-07T00:48:28;10.40;99.90
12887;DHT22;6511;49.746;6.094;2023-05-07T00:50:56;10.50;99.90
12887;DHT22;6511;49.746;6.094;2023-05-07T00:53:22;10.30;99.90
12887;DHT22;6511;49.746;6.094;2023-05-07T00:55:48;10.30;99.90
12887;DHT22;6511;49.746;6.094;2023-05-07T00:58:14;10.30;99.90
12887;DHT22;6511;49.746;6.094;2023-05-07T01:00:40;10.40;99.90
12887;DHT22;6511;49.746;6.094;2023-05-07T01:03:06;10.40;99.90
12887;DHT22;6511;49.746;6.094;2023-05-07T01:05:31;10.50;99.90
12887;DHT22;6511;49.746;6.094;2023-05-07T01:07:58;10.40;99.90
12887;DHT22;6511;49.746;6.094;2023-05-07T01:10:25;10.50;99.90
12887;DHT22;6511;49.746;6.094;2023-05-07T01:12:51;10.50;99.90
12887;DHT22;6511;49.746;6.094;2023-05-07T01:15:17;10.60;99.90
12887;DHT22;6511;49.746;6.094;2023-05-07T01:17:43;10.70;99.90
12887;DHT22;6511;49.746;6.094;2023-05-07T01:20:10;10.70;99.90
12887;DHT22;6511;49.746;6.094;2023-05-07T01:22:39;10.70;99.90
12887;DHT22;6511;49.746;6.094;2023-05-07T01:25:06;10.70;99.90
12887;DHT22;6511;49.746;6.094;2023-05-07T01:27:32;10.30;99.90
12887;DHT22;6511;49.746;6.094;2023-05-07T01:29:59;10.20;99.90
12887;DHT22;6511;49.746;6.094;2023-05-07T01:32:37;10.20;99.90
12887;DHT22;6511;49.746;6.094;2023-05-07T01:35:07;10.20;99.90
12887;DHT22;6511;49.746;6.094;2023-05-07T01:37:35;10.40;99.90
12887;DHT22;6511;49.746;6.094;2023-05-07T01:40:02;10.40;99.90
12887;DHT22;6511;49.746;6.094;2023-05-07T01:42:29;10.50;99.90
12887;DHT22;6511;49.746;6.094;2023-05-07T01:44:55;10.40;99.90
12887;DHT22;6511;49.746;6.094;2023-05-07T01:47:21;10.20;99.90
12887;DHT22;6511;49.746;6.094;2023-05-07T01:49:47;10.10;99.90
12887;DHT22;6511;49.746;6.094;2023-05-07T01:52:13;9.80;99.90
12887;DHT22;6511;49.746;6.094;2023-05-07T01:54:38;9.90;99.90
12887;DHT22;6511;49.746;6.094;2023-05-07T01:57:04;9.70;99.90
12887;DHT22;6511;49.746;6.094;2023-05-07T01:59:30;9.60;99.90
12887;DHT22;6511;49.746;6.094;2023-05-07T02:01:55;9.60;99.90
12887;DHT22;6511;49.746;6.094;2023-05-07T02:04:21;9.80;99.90
12887;DHT22;6511;49.746;6.094;2023-05-07T02:06:47;9.80;99.90
12887;DHT22;6511;49.746;6.094;2023-05-07T02:09:13;9.70;99.90
12887;DHT22;6511;49.746;6.094;2023-05-07T02:11:40;9.80;99.90
12887;DHT22;6511;49.746;6.094;2023-05-07T02:14:05;9.80;99.90
12887;DHT22;6511;49.746;6.094;2023-05-07T02:16:31;9.90;99.90
12887;DHT22;6511;49.746;6.094;2023-05-07T02:18:57;10.00;99.90
12887;DHT22;6511;49.746;6.094;2023-05-07T02:21:24;10.00;99.90
12887;DHT22;6511;49.746;6.094;2023-05-07T02:23:50;10.00;99.90
12887;DHT22;6511;49.746;6.094;2023-05-07T02:26:16;10.00;99.90
12887;DHT22;6511;49.746;6.094;2023-05-07T02:28:41;9.90;99.90
12887;DHT22;6511;49.746;6.094;2023-05-07T02:31:07;9.90;99.90
12887;DHT22;6511;49.746;6.094;2023-05-07T02:33:33;10.00;99.90
12887;DHT22;6511;49.746;6.094;2023-05-07T02:36:10;9.90;99.90
12887;DHT22;6511;49.746;6.094;2023-05-07T02:38:36;10.00;99.90
12887;DHT22;6511;49.746;6.094;2023-05-07T02:41:02;9.70;99.90
12887;DHT22;6511;49.746;6.094;2023-05-07T02:43:28;9.40;99.90
12887;DHT22;6511;49.746;6.094;2023-05-07T02:46:01;9.30;99.90
12887;DHT22;6511;49.746;6.094;2023-05-07T02:48:28;9.30;99.90
12887;DHT22;6511;49.746;6.094;2023-05-07T02:50:53;9.40;99.90
12887;DHT22;6511;49.746;6.094;2023-05-07T02:53:19;9.30;99.90
12887;DHT22;6511;49.746;6.094;2023-05-07T02:55:45;9.20;99.90
12887;DHT22;6511;49.746;6.094;2023-05-07T02:58:10;9.10;99.90
12887;DHT22;6511;49.746;6.094;2023-05-07T03:00:36;9.10;99.90
12887;DHT22;6511;49.746;6.094;2023-05-07T03:03:02;9.10;99.90
12887;DHT22;6511;49.746;6.094;2023-05-07T03:05:27;9.00;99.90
12887;DHT22;6511;49.746;6.094;2023-05-07T03:07:53;9.10;99.90
12887;DHT22;6511;49.746;6.094;2023-05-07T03:10:19;9.00;99.90
12887;DHT22;6511;49.746;6.094;2023-05-07T03:12:44;9.10;99.90
12887;DHT22;6511;49.746;6.094;2023-05-07T03:15:10;9.20;99.90
12887;DHT22;6511;49.746;6.094;2023-05-07T03:17:38;9.10;99.90
12887;DHT22;6511;49.746;6.094;2023-05-07T03:20:04;9.00;99.90
12887;DHT22;6511;49.746;6.094;2023-05-07T03:22:30;9.00;99.90
12887;DHT22;6511;49.746;6.094;2023-05-07T03:24:55;8.90;99.90
12887;DHT22;6511;49.746;6.094;2023-05-07T03:27:21;8.90;99.90
12887;DHT22;6511;49.746;6.094;2023-05-07T03:29:47;8.90;99.90
12887;DHT22;6511;49.746;6.094;2023-05-07T03:32:13;8.90;99.90
12887;DHT22;6511;49.746;6.094;2023-05-07T03:34:38;8.90;99.90
12887;DHT22;6511;49.746;6.094;2023-05-07T03:37:04;9.00;99.90
12887;DHT22;6511;49.746;6.094;2023-05-07T03:39:30;9.00;99.90
12887;DHT22;6511;49.746;6.094;2023-05-07T03:41:56;9.00;99.90
12887;DHT22;6511;49.746;6.094;2023-05-07T03:44:22;9.10;99.90
12887;DHT22;6511;49.746;6.094;2023-05-07T03:46:47;9.10;99.90
12887;DHT22;6511;49.746;6.094;2023-05-07T03:49:13;9.00;99.90
12887;DHT22;6511;49.746;6.094;2023-05-07T03:51:39;9.00;99.90
12887;DHT22;6511;49.746;6.094;2023-05-07T03:54:04;9.00;99.90
12887;DHT22;6511;49.746;6.094;2023-05-07T03:56:30;9.10;99.90
12887;DHT22;6511;49.746;6.094;2023-05-07T03:58:56;9.00;99.90
12887;DHT22;6511;49.746;6.094;2023-05-07T04:01:22;9.00;99.90
12887;DHT22;6511;49.746;6.094;2023-05-07T04:03:48;9.10;99.90
12887;DHT22;6511;49.746;6.094;2023-05-07T04:06:15;9.20;99.90
12887;DHT22;6511;49.746;6.094;2023-05-07T04:08:40;9.20;99.90
12887;DHT22;6511;49.746;6.094;2023-05-07T04:11:06;9.00;99.90
12887;DHT22;6511;49.746;6.094;2023-05-07T04:13:32;9.00;99.90
12887;DHT22;6511;49.746;6.094;2023-05-07T04:15:57;9.20;99.90
12887;DHT22;6511;49.746;6.094;2023-05-07T04:18:23;9.20;99.90
12887;DHT22;6511;49.746;6.094;2023-05-07T04:20:49;9.30;99.90
12887;DHT22;6511;49.746;6.094;2023-05-07T04:23:15;9.30;99.90
12887;DHT22;6511;49.746;6.094;2023-05-07T04:25:41;9.30;99.90
12887;DHT22;6511;49.746;6.094;2023-05-07T04:28:07;9.40;99.90
12887;DHT22;6511;49.746;6.094;2023-05-07T04:30:32;9.50;99.90
12887;DHT22;6511;49.746;6.094;2023-05-07T04:32:58;9.40;99.90
12887;DHT22;6511;49.746;6.094;2023-05-07T04:35:24;9.40;99.90
12887;DHT22;6511;49.746;6.094;2023-05-07T04:37:49;9.20;99.90
12887;DHT22;6511;49.746;6.094;2023-05-07T04:40:15;9.10;99.90
12887;DHT22;6511;49.746;6.094;2023-05-07T04:42:41;9.00;99.90
12887;DHT22;6511;49.746;6.094;2023-05-07T04:45:07;9.00;99.90
12887;DHT22;6511;49.746;6.094;2023-05-07T04:47:34;9.00;99.90
12887;DHT22;6511;49.746;6.094;2023-05-07T04:49:59;9.10;99.90
12887;DHT22;6511;49.746;6.094;2023-05-07T04:52:25;9.00;99.90
12887;DHT22;6511;49.746;6.094;2023-05-07T04:54:51;9.00;99.90
12887;DHT22;6511;49.746;6.094;2023-05-07T04:57:16;8.90;99.90
12887;DHT22;6511;49.746;6.094;2023-05-07T04:59:43;8.80;99.90
12887;DHT22;6511;49.746;6.094;2023-05-07T05:02:10;8.70;99.90
12887;DHT22;6511;49.746;6.094;2023-05-07T05:04:36;8.70;99.90
12887;DHT22;6511;49.746;6.094;2023-05-07T05:07:02;8.90;99.90
12887;DHT22;6511;49.746;6.094;2023-05-07T05:09:29;9.00;99.90
12887;DHT22;6511;49.746;6.094;2023-05-07T05:11:55;9.10;99.90
12887;DHT22;6511;49.746;6.094;2023-05-07T05:14:21;9.10;99.90
12887;DHT22;6511;49.746;6.094;2023-05-07T05:16:47;9.10;99.90
12887;DHT22;6511;49.746;6.094;2023-05-07T05:19:12;9.30;99.90
12887;DHT22;6511;49.746;6.094;2023-05-07T05:21:38;9.60;99.90
12887;DHT22;6511;49.746;6.094;2023-05-07T05:24:04;9.80;99.90
12887;DHT22;6511;49.746;6.094;2023-05-07T05:26:29;9.80;99.90
12887;DHT22;6511;49.746;6.094;2023-05-07T05:28:55;9.80;99.90
12887;DHT22;6511;49.746;6.094;2023-05-07T05:31:21;10.00;99.90
12887;DHT22;6511;49.746;6.094;2023-05-07T05:33:46;10.20;99.90
12887;DHT22;6511;49.746;6.094;2023-05-07T05:36:12;10.30;99.90
12887;DHT22;6511;49.746;6.094;2023-05-07T05:38:39;10.30;99.90
12887;DHT22;6511;49.746;6.094;2023-05-07T05:41:05;10.40;99.90
12887;DHT22;6511;49.746;6.094;2023-05-07T05:43:30;10.50;99.90
12887;DHT22;6511;49.746;6.094;2023-05-07T05:45:57;10.50;99.90
12887;DHT22;6511;49.746;6.094;2023-05-07T05:48:23;10.60;99.90
12887;DHT22;6511;49.746;6.094;2023-05-07T05:50:49;10.60;99.90
12887;DHT22;6511;49.746;6.094;2023-05-07T05:53:14;10.70;99.90
12887;DHT22;6511;49.746;6.094;2023-05-07T05:55:41;10.80;99.90
12887;DHT22;6511;49.746;6.094;2023-05-07T05:58:07;10.90;99.90
12887;DHT22;6511;49.746;6.094;2023-05-07T06:00:33;11.00;99.90
12887;DHT22;6511;49.746;6.094;2023-05-07T06:02:59;11.00;99.90
12887;DHT22;6511;49.746;6.094;2023-05-07T06:05:25;11.10;99.90
12887;DHT22;6511;49.746;6.094;2023-05-07T06:07:51;11.30;99.90
12887;DHT22;6511;49.746;6.094;2023-05-07T06:10:16;11.30;99.90
12887;DHT22;6511;49.746;6.094;2023-05-07T06:12:42;11.40;99.90
12887;DHT22;6511;49.746;6.094;2023-05-07T06:15:08;11.60;99.90
12887;DHT22;6511;49.746;6.094;2023-05-07T06:17:34;11.70;99.90
12887;DHT22;6511;49.746;6.094;2023-05-07T06:19:59;11.90;99.90
12887;DHT22;6511;49.746;6.094;2023-05-07T06:22:25;12.00;99.90
12887;DHT22;6511;49.746;6.094;2023-05-07T06:24:51;12.00;99.90
12887;DHT22;6511;49.746;6.094;2023-05-07T06:27:16;12.20;99.90
12887;DHT22;6511;49.746;6.094;2023-05-07T06:29:42;12.30;99.90
12887;DHT22;6511;49.746;6.094;2023-05-07T06:32:12;12.40;99.90
12887;DHT22;6511;49.746;6.094;2023-05-07T06:34:38;12.50;99.90
12887;DHT22;6511;49.746;6.094;2023-05-07T06:37:04;12.60;99.90
12887;DHT22;6511;49.746;6.094;2023-05-07T06:39:30;12.70;99.90
12887;DHT22;6511;49.746;6.094;2023-05-07T06:41:56;12.80;99.90
12887;DHT22;6511;49.746;6.094;2023-05-07T06:44:22;12.80;99.90
12887;DHT22;6511;49.746;6.094;2023-05-07T06:46:48;12.90;99.90
12887;DHT22;6511;49.746;6.094;2023-05-07T06:49:13;12.90;99.90
12887;DHT22;6511;49.746;6.094;2023-05-07T06:51:39;13.00;99.90
12887;DHT22;6511;49.746;6.094;2023-05-07T06:54:05;13.10;99.90
12887;DHT22;6511;49.746;6.094;2023-05-07T06:56:32;13.10;99.90
12887;DHT22;6511;49.746;6.094;2023-05-07T06:58:57;13.20;99.90
12887;DHT22;6511;49.746;6.094;2023-05-07T07:01:23;13.00;99.90
12887;DHT22;6511;49.746;6.094;2023-05-07T07:03:48;13.10;99.90
12887;DHT22;6511;49.746;6.094;2023-05-07T07:06:14;13.30;99.90
12887;DHT22;6511;49.746;6.094;2023-05-07T07:08:40;13.30;99.90
12887;DHT22;6511;49.746;6.094;2023-05-07T07:11:06;13.40;99.90
12887;DHT22;6511;49.746;6.094;2023-05-07T07:13:31;13.50;99.90
12887;DHT22;6511;49.746;6.094;2023-05-07T07:15:57;13.60;99.90
12887;DHT22;6511;49.746;6.094;2023-05-07T07:18:23;13.80;99.90
12887;DHT22;6511;49.746;6.094;2023-05-07T07:20:49;13.80;99.90
12887;DHT22;6511;49.746;6.094;2023-05-07T07:23:14;14.00;99.90
12887;DHT22;6511;49.746;6.094;2023-05-07T07:25:40;14.00;99.90
12887;DHT22;6511;49.746;6.094;2023-05-07T07:28:06;13.90;99.90
12887;DHT22;6511;49.746;6.094;2023-05-07T07:30:32;14.10;99.90
12887;DHT22;6511;49.746;6.094;2023-05-07T07:32:58;14.30;99.90
12887;DHT22;6511;49.746;6.094;2023-05-07T07:35:29;14.20;99.90
12887;DHT22;6511;49.746;6.094;2023-05-07T07:37:54;14.20;99.90
12887;DHT22;6511;49.746;6.094;2023-05-07T07:40:20;14.40;99.90
12887;DHT22;6511;49.746;6.094;2023-05-07T07:42:46;14.50;99.90
12887;DHT22;6511;49.746;6.094;2023-05-07T07:45:12;14.60;99.90
12887;DHT22;6511;49.746;6.094;2023-05-07T07:47:39;14.60;99.90
12887;DHT22;6511;49.746;6.094;2023-05-07T07:50:06;14.80;99.90
12887;DHT22;6511;49.746;6.094;2023-05-07T07:52:31;15.00;99.90
12887;DHT22;6511;49.746;6.094;2023-05-07T07:54:57;15.10;99.90
12887;DHT22;6511;49.746;6.094;2023-05-07T07:57:23;15.20;99.90
12887;DHT22;6511;49.746;6.094;2023-05-07T07:59:49;15.20;99.90
12887;DHT22;6511;49.746;6.094;2023-05-07T08:02:15;15.40;99.90
12887;DHT22;6511;49.746;6.094;2023-05-07T08:04:41;15.40;99.90
12887;DHT22;6511;49.746;6.094;2023-05-07T08:07:09;15.50;99.90
12887;DHT22;6511;49.746;6.094;2023-05-07T08:09:35;15.70;99.90
12887;DHT22;6511;49.746;6.094;2023-05-07T08:12:01;15.80;99.90
12887;DHT22;6511;49.746;6.094;2023-05-07T08:14:27;15.80;99.90
12887;DHT22;6511;49.746;6.094;2023-05-07T08:16:54;15.90;99.90
12887;DHT22;6511;49.746;6.094;2023-05-07T08:19:20;16.10;99.90
12887;DHT22;6511;49.746;6.094;2023-05-07T08:21:46;16.10;99.90
12887;DHT22;6511;49.746;6.094;2023-05-07T08:24:16;16.20;99.90
12887;DHT22;6511;49.746;6.094;2023-05-07T08:26:43;16.30;99.90
12887;DHT22;6511;49.746;6.094;2023-05-07T08:29:08;16.40;99.90
12887;DHT22;6511;49.746;6.094;2023-05-07T08:31:34;16.40;99.90
12887;DHT22;6511;49.746;6.094;2023-05-07T08:34:00;16.50;99.90
12887;DHT22;6511;49.746;6.094;2023-05-07T08:36:26;16.70;99.90
12887;DHT22;6511;49.746;6.094;2023-05-07T08:38:52;16.80;99.90
12887;DHT22;6511;49.746;6.094;2023-05-07T08:41:18;16.80;99.90
12887;DHT22;6511;49.746;6.094;2023-05-07T08:43:47;16.90;99.90
12887;DHT22;6511;49.746;6.094;2023-05-07T08:46:22;17.00;99.90
12887;DHT22;6511;49.746;6.094;2023-05-07T08:48:49;17.00;99.90
12887;DHT22;6511;49.746;6.094;2023-05-07T08:51:20;17.20;99.90
12887;DHT22;6511;49.746;6.094;2023-05-07T08:53:47;17.10;99.90
12887;DHT22;6511;49.746;6.094;2023-05-07T08:56:17;17.20;99.90
12887;DHT22;6511;49.746;6.094;2023-05-07T08:58:43;17.40;99.90
12887;DHT22;6511;49.746;6.094;2023-05-07T09:01:13;17.60;99.90
12887;DHT22;6511;49.746;6.094;2023-05-07T09:03:40;17.50;99.90
12887;DHT22;6511;49.746;6.094;2023-05-07T09:06:06;17.60;99.90
12887;DHT22;6511;49.746;6.094;2023-05-07T09:08:35;17.50;99.90
12887;DHT22;6511;49.746;6.094;2023-05-07T09:11:01;17.70;99.90
12887;DHT22;6511;49.746;6.094;2023-05-07T09:13:27;17.90;99.90
12887;DHT22;6511;49.746;6.094;2023-05-07T09:15:53;17.80;99.90
12887;DHT22;6511;49.746;6.094;2023-05-07T09:18:19;17.80;99.90
12887;DHT22;6511;49.746;6.094;2023-05-07T09:20:45;18.00;99.90
12887;DHT22;6511;49.746;6.094;2023-05-07T09:23:10;18.10;99.90
12887;DHT22;6511;49.746;6.094;2023-05-07T09:25:36;18.20;99.90
12887;DHT22;6511;49.746;6.094;2023-05-07T09:28:03;18.30;99.90
12887;DHT22;6511;49.746;6.094;2023-05-07T09:30:33;18.40;99.90
12887;DHT22;6511;49.746;6.094;2023-05-07T09:33:01;18.40;99.90
12887;DHT22;6511;49.746;6.094;2023-05-07T09:35:27;18.50;99.90
12887;DHT22;6511;49.746;6.094;2023-05-07T09:37:55;18.60;99.90
12887;DHT22;6511;49.746;6.094;2023-05-07T09:40:25;18.70;99.90
12887;DHT22;6511;49.746;6.094;2023-05-07T09:42:52;18.70;99.90
12887;DHT22;6511;49.746;6.094;2023-05-07T09:45:30;18.90;99.90
12887;DHT22;6511;49.746;6.094;2023-05-07T09:47:58;19.00;99.90
12887;DHT22;6511;49.746;6.094;2023-05-07T09:50:34;19.10;99.90
12887;DHT22;6511;49.746;6.094;2023-05-07T09:53:01;19.40;99.90
12887;DHT22;6511;49.746;6.094;2023-05-07T09:55:28;19.30;99.90
12887;DHT22;6511;49.746;6.094;2023-05-07T09:57:55;19.30;99.90
12887;DHT22;6511;49.746;6.094;2023-05-07T10:00:22;19.30;99.90
12887;DHT22;6511;49.746;6.094;2023-05-07T10:02:50;19.40;99.90
12887;DHT22;6511;49.746;6.094;2023-05-07T10:05:18;19.50;99.90
12887;DHT22;6511;49.746;6.094;2023-05-07T10:07:45;19.60;99.90
12887;DHT22;6511;49.746;6.094;2023-05-07T10:10:11;19.40;99.90
12887;DHT22;6511;49.746;6.094;2023-05-07T10:12:38;19.50;99.90
12887;DHT22;6511;49.746;6.094;2023-05-07T10:15:07;19.60;99.90
12887;DHT22;6511;49.746;6.094;2023-05-07T10:17:38;19.60;99.90
12887;DHT22;6511;49.746;6.094;2023-05-07T10:20:05;19.70;99.90
12887;DHT22;6511;49.746;6.094;2023-05-07T10:22:47;19.60;99.90
12887;DHT22;6511;49.746;6.094;2023-05-07T10:25:31;19.80;99.90
12887;DHT22;6511;49.746;6.094;2023-05-07T10:28:00;20.10;99.90
12887;DHT22;6511;49.746;6.094;2023-05-07T10:41:45;20.30;99.90
12887;DHT22;6511;49.746;6.094;2023-05-07T10:44:11;20.40;99.90
12887;DHT22;6511;49.746;6.094;2023-05-07T10:46:36;20.60;99.90
12887;DHT22;6511;49.746;6.094;2023-05-07T10:51:35;20.70;99.90
12887;DHT22;6511;49.746;6.094;2023-05-07T10:56:37;21.10;99.90
12887;DHT22;6511;49.746;6.094;2023-05-07T11:01:57;21.30;99.90
12887;DHT22;6511;49.746;6.094;2023-05-07T11:04:24;21.20;99.90
12887;DHT22;6511;49.746;6.094;2023-05-07T11:10:00;21.70;99.90
12887;DHT22;6511;49.746;6.094;2023-05-07T11:17:28;21.60;99.90
12887;DHT22;6511;49.746;6.094;2023-05-07T11:19:57;21.50;99.90
12887;DHT22;6511;49.746;6.094;2023-05-07T11:25:02;21.80;99.90
12887;DHT22;6511;49.746;6.094;2023-05-07T11:27:29;21.70;99.90
12887;DHT22;6511;49.746;6.094;2023-05-07T11:29:55;21.70;99.90
12887;DHT22;6511;49.746;6.094;2023-05-07T11:32:29;21.80;99.90
12887;DHT22;6511;49.746;6.094;2023-05-07T11:34:56;21.90;99.90
12887;DHT22;6511;49.746;6.094;2023-05-07T11:37:23;21.70;99.90
12887;DHT22;6511;49.746;6.094;2023-05-07T11:39:49;21.60;99.90
12887;DHT22;6511;49.746;6.094;2023-05-07T11:42:30;21.50;99.90
12887;DHT22;6511;49.746;6.094;2023-05-07T11:44:56;20.80;99.90
12887;DHT22;6511;49.746;6.094;2023-05-07T11:47:22;20.20;99.90
12887;DHT22;6511;49.746;6.094;2023-05-07T11:49:49;20.10;99.90
12887;DHT22;6511;49.746;6.094;2023-05-07T11:52:16;20.20;99.90
12887;DHT22;6511;49.746;6.094;2023-05-07T11:54:55;20.40;99.90
12887;DHT22;6511;49.746;6.094;2023-05-07T11:57:22;20.70;99.90
12887;DHT22;6511;49.746;6.094;2023-05-07T11:59:47;20.70;99.90
12887;DHT22;6511;49.746;6.094;2023-05-07T12:02:17;20.90;99.90
12887;DHT22;6511;49.746;6.094;2023-05-07T12:04:43;21.10;99.90
12887;DHT22;6511;49.746;6.094;2023-05-07T12:07:16;21.00;99.90
12887;DHT22;6511;49.746;6.094;2023-05-07T12:09:42;21.00;99.90
12887;DHT22;6511;49.746;6.094;2023-05-07T12:12:08;21.10;99.90
12887;DHT22;6511;49.746;6.094;2023-05-07T12:14:41;21.20;99.90
12887;DHT22;6511;49.746;6.094;2023-05-07T12:17:08;21.40;99.90
12887;DHT22;6511;49.746;6.094;2023-05-07T12:19:35;21.30;99.90
12887;DHT22;6511;49.746;6.094;2023-05-07T12:22:03;21.40;99.90
12887;DHT22;6511;49.746;6.094;2023-05-07T12:24:28;21.20;99.90
12887;DHT22;6511;49.746;6.094;2023-05-07T12:26:54;21.20;99.90
12887;DHT22;6511;49.746;6.094;2023-05-07T12:29:23;21.20;99.90
12887;DHT22;6511;49.746;6.094;2023-05-07T12:31:50;21.20;99.90
12887;DHT22;6511;49.746;6.094;2023-05-07T12:34:15;20.60;99.90
12887;DHT22;6511;49.746;6.094;2023-05-07T12:36:41;20.60;99.90
12887;DHT22;6511;49.746;6.094;2023-05-07T12:39:08;20.80;99.90
12887;DHT22;6511;49.746;6.094;2023-05-07T12:41:57;21.00;99.90
12887;DHT22;6511;49.746;6.094;2023-05-07T12:44:29;21.20;99.90
12887;DHT22;6511;49.746;6.094;2023-05-07T12:46:55;21.40;99.90
12887;DHT22;6511;49.746;6.094;2023-05-07T12:49:22;21.40;99.90
12887;DHT22;6511;49.746;6.094;2023-05-07T12:51:48;21.40;99.90
12887;DHT22;6511;49.746;6.094;2023-05-07T12:54:30;20.90;99.90
12887;DHT22;6511;49.746;6.094;2023-05-07T12:57:06;21.20;99.90
12887;DHT22;6511;49.746;6.094;2023-05-07T12:59:39;20.90;99.90
12887;DHT22;6511;49.746;6.094;2023-05-07T13:02:06;21.00;99.90
12887;DHT22;6511;49.746;6.094;2023-05-07T13:04:31;20.70;99.90
12887;DHT22;6511;49.746;6.094;2023-05-07T13:06:58;20.50;99.90
12887;DHT22;6511;49.746;6.094;2023-05-07T13:09:23;20.40;99.90
12887;DHT22;6511;49.746;6.094;2023-05-07T13:11:49;20.20;99.90
12887;DHT22;6511;49.746;6.094;2023-05-07T13:14:15;19.90;99.90
12887;DHT22;6511;49.746;6.094;2023-05-07T13:16:41;19.50;99.90
12887;DHT22;6511;49.746;6.094;2023-05-07T13:19:06;19.20;99.90
12887;DHT22;6511;49.746;6.094;2023-05-07T13:21:32;19.20;99.90
12887;DHT22;6511;49.746;6.094;2023-05-07T13:23:58;19.10;99.90
12887;DHT22;6511;49.746;6.094;2023-05-07T13:26:24;19.10;99.90
12887;DHT22;6511;49.746;6.094;2023-05-07T13:28:50;19.00;99.90
12887;DHT22;6511;49.746;6.094;2023-05-07T13:31:17;18.90;99.90
12887;DHT22;6511;49.746;6.094;2023-05-07T13:33:43;18.90;99.90
12887;DHT22;6511;49.746;6.094;2023-05-07T13:36:08;19.00;99.90
12887;DHT22;6511;49.746;6.094;2023-05-07T13:38:34;19.10;99.90
12887;DHT22;6511;49.746;6.094;2023-05-07T13:41:00;19.00;99.90
12887;DHT22;6511;49.746;6.094;2023-05-07T13:43:26;19.10;99.90
12887;DHT22;6511;49.746;6.094;2023-05-07T13:45:51;19.30;99.90
12887;DHT22;6511;49.746;6.094;2023-05-07T13:48:17;19.20;99.90
12887;DHT22;6511;49.746;6.094;2023-05-07T13:50:42;19.40;99.90
12887;DHT22;6511;49.746;6.094;2023-05-07T13:53:08;19.50;99.90
12887;DHT22;6511;49.746;6.094;2023-05-07T13:55:34;19.80;99.90
12887;DHT22;6511;49.746;6.094;2023-05-07T13:58:01;20.00;99.90
12887;DHT22;6511;49.746;6.094;2023-05-07T14:00:28;19.90;99.90
12887;DHT22;6511;49.746;6.094;2023-05-07T14:02:54;20.00;99.90
12887;DHT22;6511;49.746;6.094;2023-05-07T14:05:20;19.80;99.90
12887;DHT22;6511;49.746;6.094;2023-05-07T14:07:48;19.80;99.90
12887;DHT22;6511;49.746;6.094;2023-05-07T14:10:17;20.00;99.90
12887;DHT22;6511;49.746;6.094;2023-05-07T14:12:44;20.00;99.90
12887;DHT22;6511;49.746;6.094;2023-05-07T14:15:10;20.10;99.90
12887;DHT22;6511;49.746;6.094;2023-05-07T14:17:36;19.80;99.90
12887;DHT22;6511;49.746;6.094;2023-05-07T14:20:01;19.80;99.90
12887;DHT22;6511;49.746;6.094;2023-05-07T14:22:27;19.80;99.90
12887;DHT22;6511;49.746;6.094;2023-05-07T14:24:53;19.70;99.90
12887;DHT22;6511;49.746;6.094;2023-05-07T14:27:18;19.80;99.90
12887;DHT22;6511;49.746;6.094;2023-05-07T14:29:44;19.70;99.90
12887;DHT22;6511;49.746;6.094;2023-05-07T14:32:11;19.90;99.90
12887;DHT22;6511;49.746;6.094;2023-05-07T14:34:36;19.90;99.90
12887;DHT22;6511;49.746;6.094;2023-05-07T14:37:02;19.80;99.90
12887;DHT22;6511;49.746;6.094;2023-05-07T14:39:28;19.80;99.90
12887;DHT22;6511;49.746;6.094;2023-05-07T14:41:54;19.90;99.90
12887;DHT22;6511;49.746;6.094;2023-05-07T14:44:21;19.70;99.90
12887;DHT22;6511;49.746;6.094;2023-05-07T14:46:47;19.60;99.90
12887;DHT22;6511;49.746;6.094;2023-05-07T14:49:14;19.50;99.90
12887;DHT22;6511;49.746;6.094;2023-05-07T14:51:43;19.50;99.90
12887;DHT22;6511;49.746;6.094;2023-05-07T14:54:09;19.50;99.90
12887;DHT22;6511;49.746;6.094;2023-05-07T14:56:35;19.50;99.90
12887;DHT22;6511;49.746;6.094;2023-05-07T14:59:02;19.40;99.90
12887;DHT22;6511;49.746;6.094;2023-05-07T15:01:28;19.20;99.90
12887;DHT22;6511;49.746;6.094;2023-05-07T15:03:54;19.20;99.90
12887;DHT22;6511;49.746;6.094;2023-05-07T15:06:20;19.30;99.90
12887;DHT22;6511;49.746;6.094;2023-05-07T15:08:46;19.20;99.90
12887;DHT22;6511;49.746;6.094;2023-05-07T15:11:11;19.20;99.90
12887;DHT22;6511;49.746;6.094;2023-05-07T15:13:37;19.10;99.90
12887;DHT22;6511;49.746;6.094;2023-05-07T15:16:02;19.00;99.90
12887;DHT22;6511;49.746;6.094;2023-05-07T15:18:28;19.10;99.90
12887;DHT22;6511;49.746;6.094;2023-05-07T15:20:55;19.00;99.90
12887;DHT22;6511;49.746;6.094;2023-05-07T15:23:22;19.00;99.90
12887;DHT22;6511;49.746;6.094;2023-05-07T15:25:47;19.00;99.90
12887;DHT22;6511;49.746;6.094;2023-05-07T15:28:13;18.90;99.90
12887;DHT22;6511;49.746;6.094;2023-05-07T15:30:38;19.00;99.90
12887;DHT22;6511;49.746;6.094;2023-05-07T15:33:04;18.90;99.90
12887;DHT22;6511;49.746;6.094;2023-05-07T15:35:30;18.90;99.90
12887;DHT22;6511;49.746;6.094;2023-05-07T15:37:55;18.80;99.90
12887;DHT22;6511;49.746;6.094;2023-05-07T15:40:21;18.80;99.90
12887;DHT22;6511;49.746;6.094;2023-05-07T15:42:47;18.80;99.90
12887;DHT22;6511;49.746;6.094;2023-05-07T15:45:12;18.80;99.90
12887;DHT22;6511;49.746;6.094;2023-05-07T15:47:38;18.80;99.90
12887;DHT22;6511;49.746;6.094;2023-05-07T15:50:04;19.00;99.90
12887;DHT22;6511;49.746;6.094;2023-05-07T15:52:30;18.90;99.90
12887;DHT22;6511;49.746;6.094;2023-05-07T15:54:56;18.90;99.90
12887;DHT22;6511;49.746;6.094;2023-05-07T15:57:23;19.00;99.90
12887;DHT22;6511;49.746;6.094;2023-05-07T15:59:49;19.00;99.90
12887;DHT22;6511;49.746;6.094;2023-05-07T16:02:14;19.00;99.90
12887;DHT22;6511;49.746;6.094;2023-05-07T16:04:40;19.20;99.90
12887;DHT22;6511;49.746;6.094;2023-05-07T16:07:06;19.20;99.90
12887;DHT22;6511;49.746;6.094;2023-05-07T16:09:32;19.20;99.90
12887;DHT22;6511;49.746;6.094;2023-05-07T16:11:59;19.20;99.90
12887;DHT22;6511;49.746;6.094;2023-05-07T16:14:24;19.30;99.90
12887;DHT22;6511;49.746;6.094;2023-05-07T16:16:50;19.10;99.90